createdAt,value
2018-11-11T00:00:59.131Z,8.48
2018-11-11T00:02:09.374Z,10.43
2018-11-11T00:03:19.152Z,8.63
2018-11-11T00:04:29.875Z,9.08
2018-11-11T00:05:40.084Z,9.13
2018-11-11T00:06:50.095Z,10.50
2018-11-11T00:08:00.663Z,9.78
2018-11-11T00:09:11.239Z,10.00
2018-11-11T00:10:20.961Z,8.45
2018-11-11T00:11:31.162Z,10.45
2018-11-11T00:12:41.070Z,10.25
2018-11-11T00:13:51.078Z,10.38
2018-11-11T00:15:01.350Z,10.13
2018-11-11T00:16:11.353Z,10.35
2018-11-11T00:17:21.346Z,10.10
2018-11-11T00:18:31.956Z,10.40
2018-11-11T00:19:42.015Z,10.08
2018-11-11T00:20:51.726Z,9.85
2018-11-11T00:22:02.221Z,9.90
2018-11-11T00:23:12.439Z,10.72
2018-11-11T00:24:22.573Z,9.70
2018-11-11T00:25:32.694Z,9.70
2018-11-11T00:26:42.854Z,10.43
2018-11-11T00:27:53.043Z,9.98
2018-11-11T00:29:03.283Z,9.38
2018-11-11T00:30:15.554Z,10.48
2018-11-11T00:31:25.593Z,10.65
2018-11-11T00:32:35.587Z,9.50
2018-11-11T00:33:45.635Z,10.65
2018-11-11T00:34:55.809Z,8.98
2018-11-11T00:36:06.013Z,9.50
2018-11-11T00:37:15.888Z,10.45
2018-11-11T00:38:26.168Z,10.30
2018-11-11T00:39:36.066Z,11.25
2018-11-11T00:40:46.068Z,10.35
2018-11-11T00:41:55.967Z,10.45
2018-11-11T00:43:05.539Z,9.00
2018-11-11T00:44:15.820Z,10.32
2018-11-11T00:45:26.058Z,10.08
2018-11-11T00:46:37.030Z,12.10
2018-11-11T00:47:47.135Z,9.38
2018-11-11T00:48:57.148Z,9.75
2018-11-11T00:50:07.771Z,10.35
2018-11-11T00:51:18.000Z,10.65
2018-11-11T00:52:28.009Z,9.93
2018-11-11T00:53:38.169Z,10.75
2018-11-11T00:54:48.210Z,9.95
2018-11-11T00:55:58.526Z,11.12
2018-11-11T00:57:09.400Z,11.70
2018-11-11T00:58:19.320Z,9.73
2018-11-11T00:59:29.482Z,10.63
2018-11-11T01:00:39.379Z,11.10
2018-11-11T01:01:49.603Z,8.85
2018-11-11T01:03:00.007Z,9.75
2018-11-11T01:04:10.145Z,10.32
2018-11-11T01:05:20.282Z,10.40
2018-11-11T01:06:30.992Z,11.00
2018-11-11T01:07:41.555Z,10.65
2018-11-11T01:08:51.834Z,11.30
2018-11-11T01:10:02.632Z,10.60
2018-11-11T01:11:12.251Z,10.03
2018-11-11T01:12:22.516Z,10.03
2018-11-11T01:13:32.792Z,9.85
2018-11-11T01:14:42.986Z,9.65
2018-11-11T01:15:53.163Z,10.78
2018-11-11T01:17:03.042Z,9.48
2018-11-11T01:18:12.866Z,10.18
2018-11-11T01:19:22.804Z,10.03
2018-11-11T01:20:33.037Z,9.68
2018-11-11T01:21:43.127Z,10.20
2018-11-11T01:22:53.746Z,9.55
2018-11-11T01:24:04.156Z,10.75
2018-11-11T01:25:14.978Z,11.10
2018-11-11T01:26:25.002Z,9.38
2018-11-11T01:27:35.171Z,10.58
2018-11-11T01:28:45.415Z,8.93
2018-11-11T01:29:55.344Z,10.38
2018-11-11T01:31:05.660Z,9.90
2018-11-11T01:32:15.522Z,9.75
2018-11-11T01:33:25.821Z,11.08
2018-11-11T01:34:35.969Z,10.23
2018-11-11T01:35:46.138Z,9.08
2018-11-11T01:36:56.641Z,11.18
2018-11-11T01:38:07.151Z,9.45
2018-11-11T01:39:17.435Z,10.60
2018-11-11T01:40:27.448Z,10.08
2018-11-11T01:41:37.696Z,11.80
2018-11-11T01:42:48.067Z,9.70
2018-11-11T01:43:58.360Z,10.05
2018-11-11T01:45:11.850Z,10.35
2018-11-11T01:46:22.141Z,9.53
2018-11-11T01:47:32.439Z,9.93
2018-11-11T01:48:42.164Z,10.08
2018-11-11T01:49:52.431Z,9.45
2018-11-11T01:51:02.791Z,9.75
2018-11-11T01:52:13.059Z,8.48
2018-11-11T01:53:22.947Z,10.80
2018-11-11T01:54:32.984Z,8.98
2018-11-11T01:55:43.645Z,9.88
2018-11-11T01:56:53.659Z,9.43
2018-11-11T01:58:04.141Z,8.80
2018-11-11T01:59:14.415Z,9.95
2018-11-11T02:00:24.648Z,9.38
2018-11-11T02:01:34.531Z,8.75
2018-11-11T02:02:45.641Z,9.05
2018-11-11T02:03:55.732Z,9.88
2018-11-11T02:05:07.856Z,9.98
2018-11-11T02:06:17.997Z,8.73
2018-11-11T02:07:28.522Z,9.60
2018-11-11T02:08:38.730Z,8.30
2018-11-11T02:09:49.473Z,11.03
2018-11-11T02:10:59.624Z,9.03
2018-11-11T02:12:09.569Z,8.95
2018-11-11T02:13:19.444Z,10.10
2018-11-11T02:14:29.475Z,9.38
2018-11-11T02:15:39.718Z,9.50
2018-11-11T02:16:49.733Z,9.85
2018-11-11T02:18:00.031Z,10.90
2018-11-11T02:19:10.079Z,9.93
2018-11-11T02:20:21.072Z,9.55
2018-11-11T02:21:31.423Z,9.15
2018-11-11T02:22:41.799Z,9.15
2018-11-11T02:23:51.990Z,8.38
2018-11-11T02:25:01.795Z,8.98
2018-11-11T02:26:11.880Z,8.75
2018-11-11T02:27:21.854Z,7.50
2018-11-11T02:28:32.321Z,8.55
2018-11-11T02:29:42.558Z,8.60
2018-11-11T02:30:52.546Z,8.95
2018-11-11T02:32:02.930Z,8.33
2018-11-11T02:33:13.133Z,7.28
2018-11-11T02:34:22.973Z,8.10
2018-11-11T02:35:33.012Z,8.10
2018-11-11T02:36:42.949Z,8.95
2018-11-11T02:37:53.206Z,8.25
2018-11-11T02:39:03.427Z,10.05
2018-11-11T02:40:14.309Z,8.53
2018-11-11T02:41:24.124Z,9.68
2018-11-11T02:42:34.137Z,9.43
2018-11-11T02:43:44.350Z,9.43
2018-11-11T02:44:54.548Z,9.20
2018-11-11T02:46:04.658Z,10.32
2018-11-11T02:47:14.782Z,10.13
2018-11-11T02:48:24.877Z,10.50
2018-11-11T02:49:34.959Z,10.45
2018-11-11T02:50:45.236Z,9.80
2018-11-11T02:51:55.401Z,9.50
2018-11-11T02:53:05.562Z,10.23
2018-11-11T02:54:15.768Z,11.00
2018-11-11T02:55:25.919Z,11.28
2018-11-11T02:56:36.380Z,9.63
2018-11-11T02:57:47.095Z,10.38
2018-11-11T02:58:57.606Z,10.45
2018-11-11T03:00:15.334Z,10.95
2018-11-11T03:01:25.222Z,10.00
2018-11-11T03:02:35.290Z,12.70
2018-11-11T03:03:45.529Z,10.10
2018-11-11T03:04:55.768Z,12.33
2018-11-11T03:06:05.953Z,10.18
2018-11-11T03:07:15.876Z,11.08
2018-11-11T03:08:26.057Z,12.90
2018-11-11T03:09:36.455Z,11.68
2018-11-11T03:10:46.723Z,10.85
2018-11-11T03:11:56.531Z,11.00
2018-11-11T03:13:06.669Z,10.10
2018-11-11T03:14:17.107Z,11.20
2018-11-11T03:15:28.139Z,9.63
2018-11-11T03:16:39.254Z,9.95
2018-11-11T03:17:49.357Z,10.32
2018-11-11T03:18:59.628Z,10.70
2018-11-11T03:20:10.735Z,10.50
2018-11-11T03:21:21.007Z,9.98
2018-11-11T03:22:31.438Z,9.20
2018-11-11T03:23:43.019Z,9.60
2018-11-11T03:24:52.958Z,10.55
2018-11-11T03:26:03.106Z,8.10
2018-11-11T03:27:13.212Z,9.40
2018-11-11T03:28:23.587Z,11.18
2018-11-11T03:29:33.680Z,9.80
2018-11-11T03:30:43.924Z,8.63
2018-11-11T03:31:53.767Z,9.55
2018-11-11T03:33:03.578Z,9.70
2018-11-11T03:34:13.710Z,9.50
2018-11-11T03:35:24.250Z,9.48
2018-11-11T03:36:34.049Z,9.65
2018-11-11T03:37:44.933Z,9.10
2018-11-11T03:38:54.961Z,9.28
2018-11-11T03:40:08.273Z,9.63
2018-11-11T03:41:18.156Z,9.35
2018-11-11T03:42:28.306Z,8.98
2018-11-11T03:43:38.861Z,9.28
2018-11-11T03:44:49.415Z,9.48
2018-11-11T03:45:59.520Z,11.18
2018-11-11T03:47:09.706Z,9.43
2018-11-11T03:48:26.322Z,8.18
2018-11-11T03:49:36.369Z,9.63
2018-11-11T03:50:46.813Z,9.25
2018-11-11T03:51:56.678Z,10.30
2018-11-11T03:53:06.802Z,9.88
2018-11-11T03:54:16.941Z,9.78
2018-11-11T03:55:26.799Z,11.00
2018-11-11T03:56:36.863Z,10.78
2018-11-11T03:57:47.261Z,11.10
2018-11-11T03:58:57.869Z,11.45
2018-11-11T04:00:09.951Z,11.93
2018-11-11T04:01:20.092Z,9.48
2018-11-11T04:02:29.898Z,10.50
2018-11-11T04:03:40.922Z,10.70
2018-11-11T04:04:51.715Z,11.08
2018-11-11T04:06:01.970Z,9.95
2018-11-11T04:07:11.844Z,9.80
2018-11-11T04:08:22.215Z,11.70
2018-11-11T04:09:32.310Z,9.58
2018-11-11T04:10:42.388Z,9.45
2018-11-11T04:11:52.610Z,11.95
2018-11-11T04:13:03.074Z,11.40
2018-11-11T04:14:13.363Z,10.00
2018-11-11T04:15:23.748Z,10.88
2018-11-11T04:16:33.787Z,9.98
2018-11-11T04:17:43.908Z,10.50
2018-11-11T04:18:54.045Z,10.20
2018-11-11T04:20:03.748Z,10.10
2018-11-11T04:21:13.884Z,10.20
2018-11-11T04:22:24.053Z,10.30
2018-11-11T04:23:34.329Z,11.30
2018-11-11T04:24:44.653Z,9.13
2018-11-11T04:25:55.144Z,10.05
2018-11-11T04:27:05.339Z,11.08
2018-11-11T04:28:15.571Z,10.45
2018-11-11T04:29:25.790Z,9.93
2018-11-11T04:30:35.802Z,9.40
2018-11-11T04:31:45.590Z,10.30
2018-11-11T04:32:56.004Z,11.05
2018-11-11T04:34:06.548Z,10.50
2018-11-11T04:35:16.834Z,11.08
2018-11-11T04:36:26.935Z,9.20
2018-11-11T04:37:37.137Z,10.72
2018-11-11T04:38:47.387Z,10.15
2018-11-11T04:39:57.594Z,8.78
2018-11-11T04:41:07.794Z,10.90
2018-11-11T04:42:17.874Z,9.10
2018-11-11T04:43:28.138Z,9.38
2018-11-11T04:44:38.300Z,10.23
2018-11-11T04:45:48.315Z,12.05
2018-11-11T04:46:58.314Z,10.32
2018-11-11T04:48:08.606Z,10.25
2018-11-11T04:49:19.161Z,9.73
2018-11-11T04:50:29.645Z,9.88
2018-11-11T04:51:39.404Z,9.40
2018-11-11T04:52:49.474Z,8.73
2018-11-11T04:53:59.571Z,9.35
2018-11-11T04:55:10.270Z,9.15
2018-11-11T04:56:20.381Z,9.55
2018-11-11T04:57:30.484Z,8.98
2018-11-11T04:58:40.378Z,8.03
2018-11-11T04:59:50.718Z,9.73
2018-11-11T05:01:00.700Z,10.28
2018-11-11T05:02:10.773Z,8.73
2018-11-11T05:03:20.770Z,7.97
2018-11-11T05:04:30.797Z,9.10
2018-11-11T05:05:41.170Z,8.20
2018-11-11T05:06:51.141Z,8.60
2018-11-11T05:08:01.373Z,7.62
2018-11-11T05:09:13.091Z,9.35
2018-11-11T05:10:23.031Z,8.85
2018-11-11T05:11:32.946Z,9.33
2018-11-11T05:12:43.482Z,8.13
2018-11-11T05:13:53.392Z,9.93
2018-11-11T05:15:03.817Z,8.45
2018-11-11T05:16:13.813Z,8.65
2018-11-11T05:17:23.750Z,7.92
2018-11-11T05:18:34.185Z,8.40
2018-11-11T05:19:44.225Z,7.58
2018-11-11T05:20:54.076Z,8.08
2018-11-11T05:22:04.052Z,8.55
2018-11-11T05:23:14.451Z,10.60
2018-11-11T05:24:24.607Z,9.25
2018-11-11T05:25:34.699Z,8.83
2018-11-11T05:26:45.236Z,8.30
2018-11-11T05:27:55.098Z,8.60
2018-11-11T05:29:05.394Z,8.18
2018-11-11T05:30:15.785Z,9.03
2018-11-11T05:31:25.863Z,7.80
2018-11-11T05:32:35.887Z,8.70
2018-11-11T05:33:46.017Z,7.90
2018-11-11T05:34:56.264Z,8.68
2018-11-11T05:36:06.776Z,7.90
2018-11-11T05:37:16.987Z,7.58
2018-11-11T05:38:27.076Z,7.95
2018-11-11T05:39:37.052Z,8.23
2018-11-11T05:40:47.114Z,8.58
2018-11-11T05:41:57.388Z,8.00
2018-11-11T05:43:06.869Z,7.30
2018-11-11T05:44:17.008Z,8.28
2018-11-11T05:45:27.413Z,8.15
2018-11-11T05:46:37.414Z,7.35
2018-11-11T05:47:47.909Z,7.60
2018-11-11T05:48:57.919Z,7.83
2018-11-11T05:50:09.820Z,9.00
2018-11-11T05:51:19.919Z,8.15
2018-11-11T05:52:30.079Z,7.75
2018-11-11T05:53:40.191Z,8.25
2018-11-11T05:54:49.948Z,7.85
2018-11-11T05:56:00.323Z,7.12
2018-11-11T05:57:10.061Z,6.60
2018-11-11T05:58:20.209Z,7.87
2018-11-11T05:59:30.459Z,7.00
2018-11-11T06:00:40.770Z,8.20
2018-11-11T06:01:50.991Z,8.10
2018-11-11T06:03:01.104Z,7.15
2018-11-11T06:04:11.462Z,8.65
2018-11-11T06:05:21.441Z,7.53
2018-11-11T06:06:31.375Z,7.00
2018-11-11T06:07:41.094Z,8.08
2018-11-11T06:08:51.515Z,7.95
2018-11-11T06:10:01.498Z,7.37
2018-11-11T06:11:11.979Z,7.60
2018-11-11T06:12:22.469Z,7.65
2018-11-11T06:13:32.576Z,8.10
2018-11-11T06:14:42.519Z,7.35
2018-11-11T06:15:52.413Z,7.05
2018-11-11T06:17:02.927Z,7.70
2018-11-11T06:18:13.068Z,7.62
2018-11-11T06:19:23.134Z,6.37
2018-11-11T06:20:33.481Z,7.47
2018-11-11T06:21:43.684Z,7.35
2018-11-11T06:22:53.906Z,7.92
2018-11-11T06:24:03.709Z,6.78
2018-11-11T06:25:14.193Z,8.20
2018-11-11T06:26:24.353Z,7.60
2018-11-11T06:27:34.496Z,6.97
2018-11-11T06:28:44.946Z,8.13
2018-11-11T06:29:55.230Z,7.78
2018-11-11T06:31:05.487Z,6.78
2018-11-11T06:32:15.566Z,7.47
2018-11-11T06:33:25.726Z,7.62
2018-11-11T06:34:35.594Z,7.20
2018-11-11T06:35:46.003Z,6.20
2018-11-11T06:36:55.861Z,7.17
2018-11-11T06:38:06.052Z,7.30
2018-11-11T06:39:16.007Z,6.70
2018-11-11T06:40:25.815Z,6.87
2018-11-11T06:41:35.553Z,6.87
2018-11-11T06:42:45.348Z,6.85
2018-11-11T06:43:55.302Z,7.25
2018-11-11T06:45:06.818Z,6.80
2018-11-11T06:46:16.756Z,6.62
2018-11-11T06:47:27.290Z,6.30
2018-11-11T06:48:37.132Z,7.10
2018-11-11T06:49:47.025Z,7.22
2018-11-11T06:50:56.945Z,6.60
2018-11-11T06:52:06.884Z,7.33
2018-11-11T06:53:16.963Z,6.80
2018-11-11T06:56:01.949Z,6.80
2018-11-11T06:57:12.111Z,7.12
2018-11-11T06:58:22.239Z,6.50
2018-11-11T06:59:32.063Z,7.53
2018-11-11T07:00:42.322Z,6.50
2018-11-11T07:01:52.351Z,6.05
2018-11-11T07:03:13.628Z,6.22
2018-11-11T07:04:23.658Z,6.42
2018-11-11T07:05:33.516Z,5.70
2018-11-11T07:06:43.653Z,6.25
2018-11-11T07:07:53.810Z,5.83
2018-11-11T07:09:05.263Z,6.15
2018-11-11T07:10:15.530Z,7.03
2018-11-11T07:11:25.668Z,5.90
2018-11-11T07:12:35.812Z,6.62
2018-11-11T07:13:46.007Z,5.47
2018-11-11T07:14:55.955Z,5.37
2018-11-11T07:16:06.324Z,6.78
2018-11-11T07:17:16.183Z,6.50
2018-11-11T07:19:12.171Z,6.55
2018-11-11T07:20:22.142Z,6.12
2018-11-11T07:21:32.160Z,5.85
2018-11-11T07:22:42.219Z,6.25
2018-11-11T07:23:52.606Z,6.00
2018-11-11T07:25:02.965Z,5.55
2018-11-11T07:26:13.438Z,6.30
2018-11-11T07:27:23.318Z,6.35
2018-11-11T07:28:33.190Z,5.67
2018-11-11T07:29:43.509Z,5.37
2018-11-11T07:30:53.607Z,5.53
2018-11-11T07:32:03.803Z,6.10
2018-11-11T07:33:13.995Z,6.40
2018-11-11T07:34:24.103Z,6.50
2018-11-11T07:35:34.046Z,5.60
2018-11-11T07:36:44.428Z,5.95
2018-11-11T07:37:54.347Z,5.85
2018-11-11T07:39:07.582Z,5.95
2018-11-11T07:40:17.792Z,5.33
2018-11-11T07:41:27.843Z,6.05
2018-11-11T07:42:38.126Z,5.28
2018-11-11T07:43:49.387Z,5.53
2018-11-11T07:45:03.471Z,6.47
2018-11-11T07:46:13.423Z,5.78
2018-11-11T07:47:23.514Z,5.42
2018-11-11T07:48:34.084Z,5.60
2018-11-11T07:49:44.067Z,6.00
2018-11-11T07:50:55.198Z,5.42
2018-11-11T07:52:06.452Z,6.60
2018-11-11T07:53:16.917Z,5.67
2018-11-11T07:54:27.013Z,5.42
2018-11-11T07:55:37.156Z,6.15
2018-11-11T07:56:47.355Z,5.70
2018-11-11T07:57:57.667Z,6.12
2018-11-11T07:59:07.991Z,5.67
2018-11-11T08:00:18.615Z,5.60
2018-11-11T08:01:28.929Z,5.22
2018-11-11T08:02:43.706Z,5.90
2018-11-11T08:03:54.024Z,6.28
2018-11-11T08:05:04.052Z,5.83
2018-11-11T08:06:21.073Z,6.00
2018-11-11T08:07:31.036Z,6.17
2018-11-11T08:08:40.797Z,6.25
2018-11-11T08:09:50.969Z,5.58
2018-11-11T08:11:12.411Z,6.15
2018-11-11T08:12:22.932Z,5.50
2018-11-11T08:13:32.801Z,5.72
2018-11-11T08:14:42.621Z,6.83
2018-11-11T08:15:52.619Z,5.83
2018-11-11T08:17:02.494Z,5.12
2018-11-11T08:18:12.690Z,5.58
2018-11-11T08:19:22.695Z,6.30
2018-11-11T08:20:32.683Z,4.60
2018-11-11T08:21:42.706Z,6.25
2018-11-11T08:22:52.592Z,5.80
2018-11-11T08:24:02.435Z,6.72
2018-11-11T08:25:12.415Z,6.37
2018-11-11T08:26:22.231Z,5.78
2018-11-11T08:27:32.104Z,6.40
2018-11-11T08:28:41.956Z,5.75
2018-11-11T08:29:52.073Z,5.60
2018-11-11T08:31:01.812Z,5.53
2018-11-11T08:32:11.882Z,5.75
2018-11-11T08:33:21.997Z,5.15
2018-11-11T08:34:32.687Z,6.53
2018-11-11T08:35:42.731Z,5.85
2018-11-11T08:36:52.955Z,6.15
2018-11-11T08:38:03.510Z,6.72
2018-11-11T08:39:14.571Z,5.95
2018-11-11T08:40:24.822Z,5.78
2018-11-11T08:41:35.509Z,6.75
2018-11-11T08:42:45.776Z,5.95
2018-11-11T08:43:55.540Z,6.12
2018-11-11T08:45:06.991Z,7.92
2018-11-11T08:46:17.160Z,7.33
2018-11-11T08:47:27.065Z,6.10
2018-11-11T08:48:37.265Z,7.85
2018-11-11T08:49:47.284Z,5.95
2018-11-11T08:50:57.336Z,5.85
2018-11-11T08:52:07.898Z,6.22
2018-11-11T08:53:18.083Z,6.67
2018-11-11T08:54:28.654Z,6.40
2018-11-11T08:55:38.580Z,5.95
2018-11-11T08:56:48.610Z,5.95
2018-11-11T08:57:58.804Z,6.00
2018-11-11T08:59:09.242Z,6.87
2018-11-11T09:00:19.732Z,6.62
2018-11-11T09:01:30.582Z,6.62
2018-11-11T09:02:40.922Z,6.35
2018-11-11T09:03:51.422Z,6.50
2018-11-11T09:05:01.367Z,5.95
2018-11-11T09:06:10.925Z,7.15
2018-11-11T09:07:21.121Z,5.50
2018-11-11T09:08:31.518Z,7.00
2018-11-11T09:09:41.371Z,6.78
2018-11-11T09:10:51.918Z,6.47
2018-11-11T09:12:02.377Z,7.83
2018-11-11T09:13:12.210Z,7.28
2018-11-11T09:14:22.774Z,7.12
2018-11-11T09:15:33.130Z,6.25
2018-11-11T09:16:43.325Z,6.58
2018-11-11T09:17:53.390Z,6.67
2018-11-11T09:19:03.254Z,7.22
2018-11-11T09:20:14.433Z,7.05
2018-11-11T09:21:24.764Z,7.35
2018-11-11T09:22:34.571Z,6.20
2018-11-11T09:23:44.796Z,6.70
2018-11-11T09:24:54.860Z,6.47
2018-11-11T09:26:05.307Z,7.40
2018-11-11T09:27:15.079Z,7.70
2018-11-11T09:28:25.258Z,6.95
2018-11-11T09:29:35.497Z,6.40
2018-11-11T09:30:45.699Z,7.40
2018-11-11T09:31:55.890Z,7.10
2018-11-11T09:33:05.995Z,6.95
2018-11-11T09:34:16.474Z,6.35
2018-11-11T09:35:26.689Z,7.47
2018-11-11T09:36:36.571Z,6.90
2018-11-11T09:37:46.590Z,6.70
2018-11-11T09:38:56.700Z,7.15
2018-11-11T09:40:07.859Z,6.58
2018-11-11T09:41:17.858Z,6.90
2018-11-11T09:42:27.767Z,7.37
2018-11-11T09:43:38.222Z,7.80
2018-11-11T09:44:48.417Z,7.10
2018-11-11T09:45:58.877Z,8.95
2018-11-11T09:47:08.830Z,8.28
2018-11-11T09:48:19.193Z,8.83
2018-11-11T09:49:29.096Z,8.03
2018-11-11T09:50:38.897Z,7.17
2018-11-11T09:51:48.575Z,8.28
2018-11-11T09:52:58.736Z,6.87
2018-11-11T09:54:09.031Z,8.80
2018-11-11T09:55:19.585Z,7.33
2018-11-11T09:56:30.028Z,7.92
2018-11-11T09:57:40.675Z,8.00
2018-11-11T09:58:50.964Z,6.95
2018-11-11T10:00:01.580Z,7.75
2018-11-11T10:01:11.409Z,6.85
2018-11-11T10:02:21.507Z,6.70
2018-11-11T10:03:39.238Z,7.30
2018-11-11T10:04:55.880Z,8.05
2018-11-11T10:06:10.023Z,6.95
2018-11-11T10:07:25.455Z,7.25
2018-11-11T10:08:44.872Z,7.10
2018-11-11T10:10:08.727Z,6.70
2018-11-11T10:11:24.732Z,7.58
2018-11-11T10:12:49.296Z,8.13
2018-11-11T10:14:20.474Z,6.37
2018-11-11T10:15:38.875Z,6.85
2018-11-11T10:17:54.179Z,7.97
2018-11-11T10:19:11.081Z,7.28
2018-11-11T10:20:28.277Z,7.08
2018-11-11T10:22:14.875Z,7.17
2018-11-11T10:24:03.555Z,7.47
2018-11-11T10:26:17.009Z,7.65
2018-11-11T10:27:33.480Z,7.05
2018-11-11T10:28:48.658Z,8.43
2018-11-11T10:30:06.257Z,7.83
2018-11-11T10:31:25.847Z,10.30
2018-11-11T10:32:51.659Z,7.95
2018-11-11T10:34:36.696Z,8.03
2018-11-11T10:36:52.039Z,7.30
2018-11-11T10:39:05.131Z,7.70
2018-11-11T10:40:23.624Z,7.58
2018-11-11T10:41:39.333Z,7.87
2018-11-11T10:43:54.596Z,6.92
2018-11-11T10:45:10.709Z,7.75
2018-11-11T10:46:24.207Z,7.20
2018-11-11T10:47:38.003Z,8.38
2018-11-11T10:48:54.292Z,6.72
2018-11-11T10:50:06.845Z,6.75
2018-11-11T10:51:17.201Z,6.75
2018-11-11T10:52:27.132Z,7.47
2018-11-11T10:53:37.031Z,7.30
2018-11-11T10:54:47.134Z,7.10
2018-11-11T10:55:57.112Z,8.20
2018-11-11T10:57:07.048Z,7.60
2018-11-11T10:58:17.751Z,8.80
2018-11-11T10:59:27.656Z,8.40
2018-11-11T11:00:43.144Z,7.90
2018-11-11T11:01:58.436Z,10.53
2018-11-11T11:03:13.823Z,8.28
2018-11-11T11:04:23.920Z,7.58
2018-11-11T11:05:33.968Z,8.03
2018-11-11T11:06:49.033Z,8.18
2018-11-11T11:07:59.351Z,8.35
2018-11-11T11:09:13.448Z,9.18
2018-11-11T11:10:24.009Z,9.00
2018-11-11T11:11:34.181Z,9.05
2018-11-11T11:12:44.161Z,8.85
2018-11-11T11:13:54.314Z,7.10
2018-11-11T11:15:04.906Z,10.00
2018-11-11T11:16:14.813Z,9.70
2018-11-11T11:17:24.953Z,9.23
2018-11-11T11:18:35.277Z,9.10
2018-11-11T11:19:46.070Z,8.70
2018-11-11T11:20:56.192Z,8.90
2018-11-11T11:22:07.118Z,7.75
2018-11-11T11:23:17.537Z,8.30
2018-11-11T11:24:27.973Z,8.98
2018-11-11T11:25:38.987Z,8.88
2018-11-11T11:26:48.824Z,8.68
2018-11-11T11:27:59.812Z,9.03
2018-11-11T11:29:10.491Z,8.95
2018-11-11T11:30:20.476Z,7.65
2018-11-11T11:31:30.770Z,8.55
2018-11-11T11:32:40.837Z,7.67
2018-11-11T11:33:51.372Z,7.65
2018-11-11T11:35:01.643Z,7.95
2018-11-11T11:36:11.904Z,8.05
2018-11-11T11:37:22.305Z,8.48
2018-11-11T11:38:32.267Z,9.58
2018-11-11T11:39:42.606Z,9.33
2018-11-11T11:40:52.974Z,9.55
2018-11-11T11:42:03.096Z,7.80
2018-11-11T11:43:13.806Z,8.48
2018-11-11T11:44:24.804Z,7.80
2018-11-11T11:45:34.977Z,6.70
2018-11-11T11:46:45.255Z,7.65
2018-11-11T11:47:56.254Z,7.12
2018-11-11T11:49:07.373Z,8.13
2018-11-11T11:50:18.113Z,8.70
2018-11-11T11:51:28.014Z,7.75
2018-11-11T11:52:38.434Z,9.68
2018-11-11T11:53:48.244Z,7.97
2018-11-11T11:54:58.193Z,8.10
2018-11-11T11:56:08.069Z,8.73
2018-11-11T11:57:17.894Z,7.80
2018-11-11T11:58:29.822Z,8.75
2018-11-11T11:59:39.921Z,8.23
2018-11-11T12:00:50.966Z,8.48
2018-11-11T12:02:01.439Z,7.08
2018-11-11T12:03:11.922Z,6.62
2018-11-11T12:04:22.285Z,7.55
2018-11-11T12:05:32.511Z,9.65
2018-11-11T12:06:42.754Z,8.80
2018-11-11T12:07:52.553Z,8.43
2018-11-11T12:09:02.726Z,8.70
2018-11-11T12:10:12.615Z,7.87
2018-11-11T12:11:22.826Z,8.13
2018-11-11T12:12:32.548Z,7.25
2018-11-11T12:13:42.495Z,7.25
2018-11-11T12:14:52.404Z,6.92
2018-11-11T12:16:02.120Z,6.53
2018-11-11T12:17:11.911Z,6.60
2018-11-11T12:19:04.950Z,6.70
2018-11-11T12:20:14.979Z,7.87
2018-11-11T12:21:25.078Z,9.25
2018-11-11T12:22:35.511Z,6.55
2018-11-11T12:23:45.222Z,8.20
2018-11-11T12:24:55.824Z,7.05
2018-11-11T12:26:06.090Z,7.20
2018-11-11T12:27:15.778Z,6.28
2018-11-11T12:28:25.897Z,7.50
2018-11-11T12:29:36.180Z,6.72
2018-11-11T12:30:46.251Z,6.20
2018-11-11T12:31:56.854Z,7.90
2018-11-11T12:33:07.098Z,6.67
2018-11-11T12:34:16.916Z,7.42
2018-11-11T12:35:26.530Z,7.55
2018-11-11T12:36:36.756Z,7.08
2018-11-11T12:37:46.564Z,7.65
2018-11-11T12:38:56.289Z,7.37
2018-11-11T12:40:08.388Z,7.03
2018-11-11T12:41:18.277Z,6.70
2018-11-11T12:42:28.403Z,7.72
2018-11-11T12:43:38.716Z,6.67
2018-11-11T12:44:48.904Z,7.12
2018-11-11T12:45:58.943Z,6.20
2018-11-11T12:47:09.090Z,6.37
2018-11-11T12:48:18.675Z,7.15
2018-11-11T12:49:28.719Z,6.60
2018-11-11T12:50:38.999Z,6.95
2018-11-11T12:51:48.599Z,6.83
2018-11-11T12:52:59.067Z,7.08
2018-11-11T12:54:08.694Z,6.97
2018-11-11T12:55:18.582Z,7.08
2018-11-11T12:56:28.212Z,6.60
2018-11-11T12:57:38.331Z,7.00
2018-11-11T12:58:48.812Z,6.40
2018-11-11T12:59:58.868Z,7.12
2018-11-11T13:01:09.375Z,6.30
2018-11-11T13:02:19.253Z,6.62
2018-11-11T13:03:29.472Z,7.08
2018-11-11T13:04:39.225Z,6.95
2018-11-11T13:05:49.157Z,6.22
2018-11-11T13:06:59.467Z,5.58
2018-11-11T13:08:09.401Z,5.92
2018-11-11T13:09:19.238Z,5.80
2018-11-11T13:10:29.234Z,5.45
2018-11-11T13:11:40.221Z,5.75
2018-11-11T13:12:50.203Z,5.85
2018-11-11T13:14:00.410Z,5.90
2018-11-11T13:15:12.208Z,6.50
2018-11-11T13:16:22.288Z,5.42
2018-11-11T13:17:32.803Z,7.00
2018-11-11T13:19:08.340Z,6.58
2018-11-11T13:20:19.212Z,5.15
2018-11-11T13:21:29.779Z,5.05
2018-11-11T13:22:39.817Z,6.15
2018-11-11T13:23:49.854Z,6.25
2018-11-11T13:24:59.938Z,6.62
2018-11-11T13:26:09.850Z,5.28
2018-11-11T13:27:19.963Z,5.33
2018-11-11T13:28:30.067Z,5.65
2018-11-11T13:29:40.391Z,6.17
2018-11-11T13:30:50.446Z,5.78
2018-11-11T13:32:00.719Z,5.83
2018-11-11T13:33:10.898Z,5.60
2018-11-11T13:34:20.835Z,5.67
2018-11-11T13:35:31.279Z,6.40
2018-11-11T13:36:41.447Z,5.45
2018-11-11T13:37:51.256Z,5.40
2018-11-11T13:39:01.564Z,6.30
2018-11-11T13:40:18.214Z,5.65
2018-11-11T13:41:28.692Z,5.47
2018-11-11T13:42:38.447Z,6.80
2018-11-11T13:43:48.518Z,5.85
2018-11-11T13:44:58.996Z,6.45
2018-11-11T13:46:08.937Z,5.90
2018-11-11T13:47:18.873Z,5.58
2018-11-11T13:48:28.868Z,5.00
2018-11-11T13:49:39.613Z,5.80
2018-11-11T13:50:49.532Z,5.65
2018-11-11T13:51:59.477Z,5.80
2018-11-11T13:53:09.897Z,6.37
2018-11-11T13:54:19.958Z,6.03
2018-11-11T13:55:30.293Z,5.58
2018-11-11T13:56:40.255Z,5.10
2018-11-11T13:57:50.337Z,5.67
2018-11-11T13:59:01.105Z,5.47
2018-11-11T14:00:14.855Z,5.37
2018-11-11T14:01:24.884Z,4.78
2018-11-11T14:02:35.135Z,5.30
2018-11-11T14:03:45.478Z,6.47
2018-11-11T14:04:55.689Z,6.35
2018-11-11T14:06:05.763Z,5.58
2018-11-11T14:07:16.006Z,5.70
2018-11-11T14:08:26.229Z,5.65
2018-11-11T14:09:36.607Z,4.90
2018-11-11T14:10:47.057Z,5.10
2018-11-11T14:11:57.038Z,4.97
2018-11-11T14:13:07.269Z,4.50
2018-11-11T14:14:17.379Z,4.22
2018-11-11T14:15:27.322Z,4.72
2018-11-11T14:16:38.160Z,4.97
2018-11-11T14:17:48.777Z,4.00
2018-11-11T14:19:24.494Z,4.35
2018-11-11T14:20:34.809Z,4.00
2018-11-11T14:21:44.941Z,4.50
2018-11-11T14:22:56.210Z,4.30
2018-11-11T14:24:06.340Z,4.47
2018-11-11T14:25:19.636Z,3.60
2018-11-11T14:26:30.503Z,3.50
2018-11-11T14:27:40.879Z,2.98
2018-11-11T14:28:51.723Z,3.95
2018-11-11T14:30:01.845Z,3.47
2018-11-11T14:31:11.698Z,3.83
2018-11-11T14:32:21.716Z,3.80
2018-11-11T14:33:31.659Z,3.05
2018-11-11T14:34:41.706Z,3.87
2018-11-11T14:35:52.249Z,3.50
2018-11-11T14:37:02.566Z,3.25
2018-11-11T14:38:12.785Z,3.05
2018-11-11T14:39:22.588Z,3.67
2018-11-11T14:40:32.426Z,3.75
2018-11-11T14:41:42.954Z,3.52
2018-11-11T14:42:53.225Z,3.50
2018-11-11T14:44:03.364Z,3.60
2018-11-11T14:45:14.530Z,4.33
2018-11-11T14:46:24.159Z,4.00
2018-11-11T14:47:34.779Z,3.30
2018-11-11T14:48:45.098Z,4.30
2018-11-11T14:49:55.247Z,3.60
2018-11-11T14:51:05.695Z,3.22
2018-11-11T14:52:15.973Z,3.30
2018-11-11T14:53:26.020Z,3.65
2018-11-11T14:54:36.116Z,3.62
2018-11-11T14:55:46.471Z,2.95
2018-11-11T14:56:56.742Z,3.70
2018-11-11T14:58:07.098Z,3.20
2018-11-11T14:59:17.205Z,4.20
2018-11-11T15:00:28.729Z,3.85
2018-11-11T15:01:38.814Z,3.95
2018-11-11T15:03:22.335Z,4.40
2018-11-11T15:04:32.454Z,3.52
2018-11-11T15:05:42.368Z,3.75
2018-11-11T15:06:52.364Z,3.83
2018-11-11T15:08:02.369Z,4.05
2018-11-11T15:09:13.097Z,4.90
2018-11-11T15:10:25.039Z,4.60
2018-11-11T15:11:35.179Z,3.80
2018-11-11T15:12:45.167Z,4.72
2018-11-11T15:13:55.359Z,4.28
2018-11-11T15:15:13.644Z,4.00
2018-11-11T15:16:24.196Z,4.37
2018-11-11T15:17:34.375Z,4.67
2018-11-11T15:18:44.540Z,4.65
2018-11-11T15:19:55.096Z,5.95
2018-11-11T15:21:05.261Z,5.40
2018-11-11T15:22:15.172Z,5.10
2018-11-11T15:23:25.439Z,5.30
2018-11-11T15:24:35.463Z,6.08
2018-11-11T15:25:45.297Z,6.00
2018-11-11T15:26:55.758Z,6.35
2018-11-11T15:28:06.853Z,5.03
2018-11-11T15:29:16.796Z,5.45
2018-11-11T15:30:28.159Z,4.62
2018-11-11T15:31:38.187Z,5.33
2018-11-11T15:32:48.486Z,4.47
2018-11-11T15:33:58.472Z,4.55
2018-11-11T15:35:08.792Z,4.83
2018-11-11T15:36:18.782Z,4.67
2018-11-11T15:37:28.703Z,4.87
2018-11-11T15:38:38.615Z,4.95
2018-11-11T15:39:48.810Z,5.80
2018-11-11T15:40:58.834Z,5.17
2018-11-11T15:42:08.879Z,5.22
2018-11-11T15:43:19.121Z,4.03
2018-11-11T15:44:29.472Z,5.37
2018-11-11T15:45:39.409Z,4.90
2018-11-11T15:46:49.754Z,4.55